createdAt,value
2018-11-25T00:00:16.618Z,21.83
2018-11-25T00:02:48.442Z,20.57
2018-11-25T00:05:19.785Z,19.17
2018-11-25T00:07:48.227Z,23.23
2018-11-25T00:10:17.595Z,22.10
2018-11-25T00:12:46.049Z,24.10
2018-11-25T00:15:14.555Z,23.20
2018-11-25T00:17:42.979Z,26.27
2018-11-25T00:20:13.997Z,22.00
2018-11-25T00:22:42.939Z,22.67
2018-11-25T00:25:12.347Z,21.83
2018-11-25T00:27:40.768Z,22.73
2018-11-25T00:30:12.954Z,23.47
2018-11-25T00:32:42.577Z,23.10
2018-11-25T00:35:12.446Z,21.83
2018-11-25T00:37:47.923Z,22.17
2018-11-25T00:40:12.240Z,23.40
2018-11-25T00:42:40.817Z,25.07
2018-11-25T00:45:11.003Z,25.47
2018-11-25T00:47:39.446Z,22.07
2018-11-25T00:50:09.903Z,25.43
2018-11-25T00:52:38.309Z,24.27
2018-11-25T00:55:09.760Z,24.77
2018-11-25T00:57:38.240Z,24.80
2018-11-25T01:00:11.026Z,24.87
2018-11-25T01:02:45.734Z,24.30
2018-11-25T01:05:14.203Z,25.13
2018-11-25T01:07:42.727Z,24.93
2018-11-25T01:10:12.554Z,24.97
2018-11-25T01:12:40.954Z,24.37
2018-11-25T01:15:11.355Z,22.83
2018-11-25T01:17:39.824Z,23.80
2018-11-25T01:20:18.160Z,24.27
2018-11-25T01:22:46.683Z,24.67
2018-11-25T01:25:15.194Z,26.20
2018-11-25T01:27:43.645Z,25.07
2018-11-25T01:30:16.770Z,27.97
2018-11-25T01:32:45.608Z,22.87
2018-11-25T01:35:14.543Z,26.07
2018-11-25T01:37:43.310Z,26.17
2018-11-25T01:40:13.858Z,23.97
2018-11-25T01:42:42.343Z,26.07
2018-11-25T01:45:12.933Z,22.90
2018-11-25T01:47:41.442Z,26.70
2018-11-25T01:50:11.535Z,25.33
2018-11-25T01:52:39.954Z,24.90
2018-11-25T01:55:17.940Z,26.10
2018-11-25T01:57:46.514Z,24.53
2018-11-25T02:00:16.133Z,23.00
2018-11-25T02:02:44.605Z,23.97
2018-11-25T02:05:14.061Z,23.10
2018-11-25T02:07:42.517Z,25.17
2018-11-25T02:10:16.186Z,26.00
2018-11-25T02:12:44.703Z,25.23
2018-11-25T02:15:14.370Z,26.53
2018-11-25T02:17:42.945Z,22.77
2018-11-25T02:20:13.958Z,25.67
2018-11-25T02:22:42.451Z,24.60
2018-11-25T02:25:10.891Z,23.23
2018-11-25T02:27:39.354Z,21.13
2018-11-25T02:30:11.218Z,23.90
2018-11-25T02:32:39.683Z,23.50
2018-11-25T02:35:09.733Z,22.77
2018-11-25T02:37:38.321Z,26.97
2018-11-25T02:40:09.178Z,24.47
2018-11-25T02:42:37.590Z,25.43
2018-11-25T02:45:09.911Z,24.30
2018-11-25T02:47:38.397Z,25.37
2018-11-25T02:50:13.743Z,27.03
2018-11-25T02:52:42.187Z,26.00
2018-11-25T02:55:16.430Z,25.63
2018-11-25T02:57:44.874Z,25.63
2018-11-25T03:00:13.338Z,24.53
2018-11-25T03:02:41.790Z,27.53
2018-11-25T03:05:10.246Z,26.57
2018-11-25T03:07:38.698Z,28.30
2018-11-25T03:10:07.706Z,27.20
2018-11-25T03:12:36.134Z,25.30
2018-11-25T03:15:08.008Z,25.50
2018-11-25T03:17:36.463Z,27.47
2018-11-25T03:20:07.579Z,23.40
2018-11-25T03:22:36.022Z,24.33
2018-11-25T03:25:05.024Z,24.90
2018-11-25T03:27:33.482Z,28.97
2018-11-25T03:30:01.979Z,25.97
2018-11-25T03:32:30.509Z,25.47
2018-11-25T03:34:58.978Z,24.47
2018-11-25T03:37:27.539Z,24.30
2018-11-25T03:39:55.997Z,24.70
2018-11-25T03:42:24.446Z,24.47
2018-11-25T03:44:52.922Z,27.00
2018-11-25T03:47:21.375Z,26.77
2018-11-25T03:49:49.902Z,27.50
2018-11-25T03:52:18.313Z,25.40
2018-11-25T03:54:46.746Z,24.73
2018-11-25T03:57:15.172Z,23.37
2018-11-25T03:59:43.607Z,23.60
2018-11-25T04:02:12.030Z,24.43
2018-11-25T04:04:40.481Z,25.40
2018-11-25T04:07:08.978Z,26.33
2018-11-25T04:09:37.535Z,25.90
2018-11-25T04:12:06.023Z,24.07
2018-11-25T04:14:34.482Z,21.97
2018-11-25T04:17:02.890Z,25.70
2018-11-25T04:19:34.688Z,25.80
2018-11-25T04:22:03.134Z,24.00
2018-11-25T04:24:31.580Z,25.50
2018-11-25T04:27:00.012Z,25.50
2018-11-25T04:29:28.467Z,23.07
2018-11-25T04:31:56.886Z,24.43
2018-11-25T04:34:25.346Z,25.20
2018-11-25T04:36:53.748Z,23.40
2018-11-25T04:39:22.295Z,24.13
2018-11-25T04:41:50.713Z,24.37
2018-11-25T04:44:19.163Z,23.57
2018-11-25T04:46:47.629Z,22.37
2018-11-25T04:49:16.066Z,23.37
2018-11-25T04:51:44.480Z,22.17
2018-11-25T04:54:19.486Z,21.80
2018-11-25T04:56:48.225Z,24.17
2018-11-25T04:59:17.283Z,24.77
2018-11-25T05:01:45.730Z,26.33
2018-11-25T05:04:14.210Z,26.23
2018-11-25T05:06:42.668Z,28.90
2018-11-25T05:09:11.111Z,29.07
2018-11-25T05:11:39.544Z,32.53
2018-11-25T05:14:08.001Z,32.70
2018-11-25T05:16:36.510Z,34.10
2018-11-25T05:19:05.051Z,34.40
2018-11-25T05:21:33.519Z,34.47
2018-11-25T05:24:01.970Z,32.17
2018-11-25T05:26:30.423Z,36.40
2018-11-25T05:28:58.883Z,34.03
2018-11-25T05:31:27.334Z,34.17
2018-11-25T05:33:55.762Z,33.73
2018-11-25T05:36:24.555Z,39.27
2018-11-25T05:38:53.236Z,30.70
2018-11-25T05:41:21.687Z,31.17
2018-11-25T05:43:50.158Z,34.20
2018-11-25T05:46:18.603Z,33.33
2018-11-25T05:48:47.010Z,33.50
2018-11-25T05:51:15.450Z,30.27
2018-11-25T05:53:43.885Z,34.70
2018-11-25T05:56:12.743Z,34.07
2018-11-25T05:58:41.223Z,32.87
2018-11-25T06:01:09.649Z,28.50
2018-11-25T06:03:38.170Z,31.20
2018-11-25T06:06:06.672Z,30.90
2018-11-25T06:08:35.106Z,31.93
2018-11-25T06:11:03.577Z,34.40
2018-11-25T06:13:32.421Z,32.53
2018-11-25T06:16:00.851Z,31.53
2018-11-25T06:18:29.284Z,33.40
2018-11-25T06:20:57.873Z,34.37
2018-11-25T06:23:26.411Z,33.47
2018-11-25T06:25:54.848Z,32.77
2018-11-25T06:28:23.278Z,32.53
2018-11-25T06:30:52.076Z,34.93
2018-11-25T06:33:20.673Z,35.73
2018-11-25T06:35:49.145Z,34.90
2018-11-25T06:38:17.665Z,31.17
2018-11-25T06:40:46.109Z,30.83
2018-11-25T06:43:14.592Z,36.20
2018-11-25T06:45:43.058Z,30.40
2018-11-25T06:48:11.661Z,35.50
2018-11-25T06:50:39.987Z,36.50
2018-11-25T06:53:08.430Z,38.53
2018-11-25T06:55:37.010Z,37.20
2018-11-25T06:58:05.497Z,40.70
2018-11-25T07:00:33.965Z,32.67
2018-11-25T07:03:02.589Z,34.63
2018-11-25T07:05:31.005Z,33.93
2018-11-25T07:08:15.832Z,37.00
2018-11-25T07:10:52.043Z,32.87
2018-11-25T07:13:20.511Z,35.90
2018-11-25T07:18:26.807Z,35.10
2018-11-25T07:20:55.243Z,35.10
2018-11-25T07:23:23.694Z,39.97
2018-11-25T07:25:52.219Z,35.17
2018-11-25T07:28:20.813Z,35.10
2018-11-25T07:30:49.302Z,36.80
2018-11-25T07:33:17.753Z,37.33
2018-11-25T07:35:46.202Z,35.57
2018-11-25T07:38:14.617Z,42.47
2018-11-25T07:40:43.053Z,41.23
2018-11-25T07:43:11.505Z,34.93
2018-11-25T07:45:39.917Z,34.60
2018-11-25T07:48:08.410Z,38.33
2018-11-25T07:50:36.910Z,40.30
2018-11-25T07:53:05.461Z,37.07
2018-11-25T07:55:33.909Z,38.73
2018-11-25T07:58:05.342Z,40.50
2018-11-25T08:00:33.941Z,39.07
2018-11-25T08:03:02.448Z,37.00
2018-11-25T08:05:31.000Z,37.07
2018-11-25T08:08:00.508Z,38.63
2018-11-25T08:10:29.178Z,37.80
2018-11-25T08:12:58.455Z,37.50
2018-11-25T08:15:26.944Z,37.73
2018-11-25T08:17:56.345Z,35.73
2018-11-25T08:20:24.779Z,39.20
2018-11-25T08:22:53.321Z,34.33
2018-11-25T08:25:22.314Z,36.00
2018-11-25T08:27:50.810Z,34.43
2018-11-25T08:30:20.249Z,32.27
2018-11-25T08:32:48.980Z,26.60
2018-11-25T08:35:17.912Z,34.43
2018-11-25T08:37:46.448Z,32.00
2018-11-25T08:40:19.012Z,27.83
2018-11-25T08:42:47.541Z,30.97
2018-11-25T08:45:16.085Z,26.93
2018-11-25T08:47:44.763Z,31.77
2018-11-25T08:50:14.298Z,30.70
2018-11-25T08:52:43.692Z,28.63
2018-11-25T08:55:14.302Z,30.80
2018-11-25T08:57:42.751Z,28.77
2018-11-25T09:00:17.927Z,29.07
2018-11-25T09:02:46.563Z,33.60
2018-11-25T09:05:28.259Z,31.37
2018-11-25T09:07:56.698Z,32.37
2018-11-25T09:10:25.098Z,35.73
2018-11-25T09:13:09.513Z,32.23
2018-11-25T09:15:39.257Z,33.67
2018-11-25T09:18:08.693Z,32.67
2018-11-25T09:20:38.446Z,33.30
2018-11-25T09:23:40.163Z,30.37
2018-11-25T09:26:08.578Z,34.70
2018-11-25T09:28:37.050Z,30.80
2018-11-25T09:31:05.946Z,31.73
2018-11-25T09:33:36.246Z,33.47
2018-11-25T09:36:08.588Z,32.73
2018-11-25T09:39:01.297Z,32.80
2018-11-25T09:41:29.821Z,31.50
2018-11-25T09:43:58.309Z,30.97
2018-11-25T09:46:27.045Z,31.67
2018-11-25T09:48:55.539Z,39.80
2018-11-25T09:51:24.189Z,33.67
2018-11-25T09:53:52.608Z,33.10
2018-11-25T09:56:21.097Z,33.83
2018-11-25T09:58:49.792Z,33.87
2018-11-25T10:01:18.781Z,31.33
2018-11-25T10:03:47.242Z,34.70
2018-11-25T10:06:15.695Z,31.53
2018-11-25T10:08:45.499Z,32.47
2018-11-25T10:11:14.004Z,29.67
2018-11-25T10:13:43.484Z,32.03
2018-11-25T10:16:11.930Z,31.80
2018-11-25T10:18:40.567Z,29.57
2018-11-25T10:21:14.075Z,31.37
2018-11-25T10:23:42.483Z,31.47
2018-11-25T10:26:10.910Z,29.93
2018-11-25T10:28:39.346Z,29.67
2018-11-25T10:31:08.395Z,32.30
2018-11-25T10:33:36.828Z,32.60
2018-11-25T10:36:05.305Z,30.13
2018-11-25T10:38:33.760Z,28.57
2018-11-25T10:41:02.252Z,28.77
2018-11-25T10:43:35.022Z,29.17
2018-11-25T10:46:03.517Z,28.37
2018-11-25T10:48:32.064Z,29.40
2018-11-25T10:51:00.571Z,38.43
2018-11-25T10:53:29.073Z,32.70
2018-11-25T10:55:57.571Z,29.97
2018-11-25T10:58:26.014Z,32.97
2018-11-25T11:00:54.591Z,31.57
2018-11-25T11:03:29.464Z,31.33
2018-11-25T11:06:03.251Z,31.87
2018-11-25T11:08:31.706Z,29.20
2018-11-25T11:11:00.354Z,29.90
2018-11-25T11:13:30.196Z,34.50
2018-11-25T11:15:58.897Z,31.00
2018-11-25T11:18:27.387Z,33.23
2018-11-25T11:20:55.890Z,55.67
2018-11-25T11:23:24.484Z,36.30
2018-11-25T11:25:52.966Z,30.23
2018-11-25T11:28:23.073Z,45.90
2018-11-25T11:30:51.586Z,34.10
2018-11-25T11:33:20.125Z,34.10
2018-11-25T11:35:48.569Z,30.47
2018-11-25T11:38:17.135Z,34.17
2018-11-25T11:40:45.842Z,34.63
2018-11-25T11:43:14.394Z,37.13
2018-11-25T11:45:42.921Z,31.17
2018-11-25T11:48:11.431Z,35.37
2018-11-25T11:50:40.858Z,29.70
2018-11-25T11:53:14.672Z,33.10
2018-11-25T11:55:43.134Z,36.03
2018-11-25T11:58:12.660Z,35.10
2018-11-25T12:00:41.114Z,32.97
2018-11-25T12:03:09.534Z,34.10
2018-11-25T12:05:38.050Z,35.60
2018-11-25T12:08:06.810Z,35.27
2018-11-25T12:10:35.248Z,35.60
2018-11-25T12:13:03.771Z,37.73
2018-11-25T12:15:32.428Z,34.70
2018-11-25T12:18:00.935Z,36.57
2018-11-25T12:20:30.618Z,34.93
2018-11-25T12:23:09.336Z,36.13
2018-11-25T12:25:39.130Z,36.43
2018-11-25T12:28:22.335Z,39.93
2018-11-25T12:31:01.982Z,38.00
2018-11-25T12:33:30.540Z,42.70
2018-11-25T12:35:59.063Z,38.67
2018-11-25T12:38:27.570Z,40.20
2018-11-25T12:40:56.078Z,35.80
2018-11-25T12:43:24.795Z,36.23
2018-11-25T12:45:53.289Z,35.90
2018-11-25T12:48:21.862Z,39.30
2018-11-25T12:50:51.392Z,38.63
2018-11-25T12:53:20.062Z,34.80
2018-11-25T12:55:48.946Z,37.57
2018-11-25T12:58:17.427Z,35.97
2018-11-25T13:00:47.873Z,33.70
2018-11-25T13:03:16.466Z,38.20
2018-11-25T13:05:46.383Z,35.60
2018-11-25T13:08:14.496Z,34.10
2018-11-25T13:10:43.151Z,35.90
2018-11-25T13:13:12.251Z,33.10
2018-11-25T13:15:40.747Z,35.10
2018-11-25T13:18:10.031Z,38.67
2018-11-25T13:20:38.659Z,36.07
2018-11-25T13:23:08.098Z,35.67
2018-11-25T13:25:36.651Z,35.47
2018-11-25T13:28:05.250Z,36.40
2018-11-25T13:30:33.865Z,38.33
2018-11-25T13:33:03.211Z,31.30
2018-11-25T13:35:34.179Z,34.00
2018-11-25T13:38:02.698Z,37.80
2018-11-25T13:40:31.209Z,31.73
2018-11-25T13:43:00.634Z,34.00
2018-11-25T13:45:29.109Z,31.67
2018-11-25T13:47:57.609Z,33.40
2018-11-25T13:50:26.168Z,34.90
2018-11-25T13:52:54.660Z,35.77
2018-11-25T13:55:24.769Z,35.93
2018-11-25T13:57:53.538Z,33.33
2018-11-25T14:00:54.733Z,33.30
2018-11-25T14:03:26.542Z,36.57
2018-11-25T14:05:55.446Z,31.93
2018-11-25T14:08:23.942Z,33.50
2018-11-25T14:11:12.975Z,38.17
2018-11-25T14:13:41.519Z,30.63
2018-11-25T14:16:12.226Z,32.73
2018-11-25T14:18:42.304Z,32.43
2018-11-25T14:21:10.815Z,30.20
2018-11-25T14:23:39.447Z,36.83
2018-11-25T14:26:23.515Z,31.13
2018-11-25T14:28:52.051Z,30.90
2018-11-25T14:31:20.627Z,28.20
2018-11-25T14:33:49.202Z,32.10
2018-11-25T14:36:17.715Z,34.60
2018-11-25T14:38:46.216Z,37.20
2018-11-25T14:41:14.674Z,30.80
2018-11-25T14:43:43.160Z,34.27
2018-11-25T14:46:11.638Z,36.47
2018-11-25T14:48:40.953Z,34.27
2018-11-25T14:51:12.248Z,37.60
2018-11-25T14:53:40.819Z,34.97
2018-11-25T14:56:09.437Z,32.17
2018-11-25T14:58:38.078Z,37.47
2018-11-25T15:01:06.728Z,34.87
2018-11-25T15:03:35.221Z,35.70
2018-11-25T15:06:03.797Z,34.00
2018-11-25T15:08:32.449Z,37.60
2018-11-25T15:11:00.996Z,37.40
2018-11-25T15:13:29.511Z,36.80
2018-11-25T15:15:59.582Z,43.27
2018-11-25T15:18:28.033Z,38.73
2018-11-25T15:20:56.743Z,38.80
2018-11-25T15:23:25.463Z,35.30
2018-11-25T15:25:55.198Z,40.50
2018-11-25T15:28:23.670Z,35.80
2018-11-25T15:30:52.704Z,36.67
2018-11-25T15:33:23.320Z,35.93
2018-11-25T15:35:51.860Z,40.03
2018-11-25T15:38:21.486Z,37.90
2018-11-25T15:40:49.999Z,35.03
2018-11-25T15:43:18.544Z,36.53
2018-11-25T15:45:47.128Z,39.17
2018-11-25T15:48:27.206Z,34.50
2018-11-25T15:50:55.736Z,41.20
2018-11-25T15:53:24.240Z,39.00
2018-11-25T15:55:55.436Z,36.90
2018-11-25T15:58:24.763Z,38.10
2018-11-25T16:00:53.374Z,40.50
2018-11-25T16:03:21.945Z,37.50
2018-11-25T16:06:00.010Z,39.33
2018-11-25T16:08:28.548Z,36.20
2018-11-25T16:10:57.227Z,36.73
2018-11-25T16:13:26.391Z,36.23
2018-11-25T16:15:58.214Z,38.67
2018-11-25T16:18:26.790Z,37.37
2018-11-25T16:20:55.286Z,38.90
2018-11-25T16:23:23.754Z,38.80
2018-11-25T16:25:54.106Z,38.63
2018-11-25T16:28:28.403Z,40.03
2018-11-25T16:30:56.915Z,38.50
2018-11-25T16:33:25.475Z,37.23
2018-11-25T16:35:53.969Z,38.60
2018-11-25T16:38:22.498Z,39.27
2018-11-25T16:40:51.327Z,35.40
2018-11-25T16:43:19.833Z,39.37
2018-11-25T16:45:48.375Z,39.00
2018-11-25T16:48:16.940Z,38.60
2018-11-25T16:50:45.450Z,38.03
2018-11-25T16:53:13.938Z,38.33
2018-11-25T16:55:42.542Z,38.47
2018-11-25T16:58:11.033Z,36.57
2018-11-25T17:00:39.560Z,38.23
2018-11-25T17:03:08.204Z,38.80
2018-11-25T17:05:38.827Z,38.50
2018-11-25T17:08:27.092Z,35.67
2018-11-25T17:10:55.634Z,39.07
2018-11-25T17:13:24.103Z,36.10
2018-11-25T17:15:52.610Z,36.07
2018-11-25T17:18:21.140Z,33.37
2018-11-25T17:20:49.670Z,35.97
2018-11-25T17:23:18.162Z,34.90
2018-11-25T17:25:47.390Z,38.17
2018-11-25T17:28:15.913Z,40.83
2018-11-25T17:30:44.619Z,38.57
2018-11-25T17:33:13.233Z,40.23
2018-11-25T17:35:41.769Z,38.60
2018-11-25T17:38:10.266Z,38.53
2018-11-25T17:40:38.876Z,38.40
2018-11-25T17:43:12.413Z,37.60
2018-11-25T17:45:40.967Z,36.00
2018-11-25T17:48:09.463Z,38.97
2018-11-25T17:50:37.966Z,37.60
2018-11-25T17:53:07.079Z,40.03
2018-11-25T17:55:35.625Z,38.33
2018-11-25T17:58:04.218Z,40.33
2018-11-25T18:00:38.088Z,44.17
2018-11-25T18:03:10.012Z,37.07
2018-11-25T18:05:38.996Z,40.47
2018-11-25T18:08:07.175Z,36.03
2018-11-25T18:10:35.777Z,40.73
2018-11-25T18:13:05.926Z,37.87
2018-11-25T18:15:34.490Z,39.90
2018-11-25T18:18:05.758Z,35.70
2018-11-25T18:20:39.705Z,37.47
2018-11-25T18:23:08.962Z,38.33
2018-11-25T18:25:37.411Z,34.37
2018-11-25T18:28:06.026Z,35.40
2018-11-25T18:30:34.527Z,34.57
2018-11-25T18:33:03.228Z,38.30
2018-11-25T18:35:31.754Z,34.10
2018-11-25T18:38:00.359Z,36.97
2018-11-25T18:40:28.928Z,37.60
2018-11-25T18:42:58.321Z,36.77
2018-11-25T18:45:26.814Z,36.30
2018-11-25T18:47:55.391Z,38.80
2018-11-25T18:50:23.924Z,34.20
2018-11-25T18:52:53.851Z,33.00
2018-11-25T18:55:21.193Z,34.37
2018-11-25T18:57:49.810Z,33.00
2018-11-25T19:00:26.171Z,33.53
2018-11-25T19:02:54.702Z,33.40
2018-11-25T19:05:24.055Z,33.47
2018-11-25T19:07:51.806Z,37.70
2018-11-25T19:10:20.400Z,34.47
2018-11-25T19:12:49.931Z,35.13
2018-11-25T19:15:19.420Z,33.70
2018-11-25T19:17:50.436Z,34.60
2018-11-25T19:20:30.096Z,34.20
2018-11-25T19:22:59.388Z,34.50
2018-11-25T19:25:27.906Z,36.43
2018-11-25T19:27:57.224Z,34.00
2018-11-25T19:30:26.792Z,38.03
2018-11-25T19:32:54.322Z,35.00
2018-11-25T19:35:23.346Z,34.10
2018-11-25T19:37:52.488Z,34.80
2018-11-25T19:40:26.018Z,32.10
2018-11-25T19:42:54.636Z,31.27
2018-11-25T19:45:24.415Z,30.43
2018-11-25T19:47:54.925Z,28.83
2018-11-25T19:50:27.051Z,32.53
2018-11-25T19:52:55.534Z,31.57
2018-11-25T19:55:24.025Z,28.33
2018-11-25T19:57:52.482Z,29.40
2018-11-25T20:00:22.390Z,31.23
2018-11-25T20:02:51.023Z,30.27
2018-11-25T20:05:19.597Z,31.87
2018-11-25T20:07:48.252Z,34.00
2018-11-25T20:10:19.425Z,28.47
2018-11-25T20:12:52.269Z,30.47
2018-11-25T20:15:21.049Z,30.30
2018-11-25T20:17:54.600Z,30.73
2018-11-25T20:20:19.507Z,31.30
2018-11-25T20:22:48.378Z,31.80
2018-11-25T20:25:17.341Z,32.57
2018-11-25T20:27:50.080Z,30.20
2018-11-25T20:30:21.691Z,31.10
2018-11-25T20:32:58.579Z,31.70
2018-11-25T20:35:27.611Z,33.70
2018-11-25T20:38:02.126Z,31.73
2018-11-25T20:40:34.868Z,32.27
2018-11-25T20:43:03.497Z,31.57
2018-11-25T20:45:39.160Z,32.63
2018-11-25T20:48:06.014Z,31.00
2018-11-25T20:50:34.515Z,34.17
2018-11-25T20:53:10.716Z,32.83
2018-11-25T20:55:39.256Z,31.83
2018-11-25T20:58:08.903Z,33.97
2018-11-25T21:00:38.214Z,33.47
2018-11-25T21:03:08.742Z,32.97
2018-11-25T21:05:37.283Z,38.17
2018-11-25T21:08:06.791Z,34.23
2018-11-25T21:10:35.281Z,37.23
2018-11-25T21:13:03.815Z,35.27
2018-11-25T21:15:32.296Z,33.53
2018-11-25T21:18:00.816Z,36.27
2018-11-25T21:20:29.266Z,36.90
2018-11-25T21:22:57.735Z,36.33
2018-11-25T21:25:26.220Z,39.00
2018-11-25T21:27:54.701Z,34.77
2018-11-25T21:30:25.419Z,37.87
2018-11-25T21:32:55.256Z,36.97
2018-11-25T21:35:23.737Z,37.70
2018-11-25T21:37:52.229Z,37.87
2018-11-25T21:40:22.131Z,37.50
2018-11-25T21:42:50.687Z,39.17
2018-11-25T21:45:20.748Z,35.67
2018-11-25T21:47:49.439Z,37.50
2018-11-25T21:50:21.566Z,39.53
2018-11-25T21:52:50.070Z,37.97
2018-11-25T21:55:18.877Z,34.93
2018-11-25T21:57:47.414Z,34.40
2018-11-25T22:00:17.926Z,36.90
2018-11-25T22:02:46.709Z,34.40
2018-11-25T22:05:15.561Z,38.33
2018-11-25T22:07:44.122Z,35.93
2018-11-25T22:10:13.948Z,37.10
2018-11-25T22:12:42.826Z,36.93
2018-11-25T22:15:14.308Z,35.90
2018-11-25T22:17:42.917Z,35.90
2018-11-25T22:20:12.457Z,34.50
2018-11-25T22:22:40.946Z,36.10
2018-11-25T22:25:12.625Z,35.37
2018-11-25T22:27:41.116Z,35.73
2018-11-25T22:30:11.447Z,36.43
2018-11-25T22:32:39.934Z,35.80
2018-11-25T22:35:12.698Z,35.10
2018-11-25T22:37:42.068Z,34.10
2018-11-25T22:40:10.915Z,34.40
2018-11-25T22:42:40.163Z,35.20
2018-11-25T22:45:10.929Z,32.60
2018-11-25T22:47:39.454Z,36.97
2018-11-25T22:50:12.405Z,34.07
2018-11-25T22:52:40.922Z,33.70
2018-11-25T22:55:13.859Z,34.83
2018-11-25T22:57:42.402Z,30.90
2018-11-25T23:00:23.747Z,31.73
2018-11-25T23:02:52.197Z,34.03
2018-11-25T23:05:31.861Z,36.20
2018-11-25T23:08:00.383Z,30.90
2018-11-25T23:10:28.909Z,33.00
2018-11-25T23:12:57.459Z,32.03
2018-11-25T23:15:25.944Z,29.77
2018-11-25T23:17:54.390Z,32.23
2018-11-25T23:20:22.885Z,33.00
2018-11-25T23:22:51.662Z,32.37
2018-11-25T23:25:20.178Z,30.90
2018-11-25T23:27:48.639Z,31.70
2018-11-25T23:30:17.142Z,35.83
2018-11-25T23:32:45.612Z,32.20
2018-11-25T23:35:18.730Z,30.17
2018-11-25T23:37:47.174Z,29.30
2018-11-25T23:40:15.661Z,27.73
2018-11-25T23:42:44.203Z,27.23
2018-11-25T23:45:13.973Z,28.70
2018-11-25T23:47:42.539Z,24.57
2018-11-25T23:50:12.022Z,26.97
2018-11-25T23:52:41.037Z,25.00
2018-11-25T23:55:11.611Z,26.57
2018-11-25T23:57:40.324Z,27.00
